createdAt,value
2023-01-15T00:02:09.654Z,11.20
2023-01-15T00:04:36.628Z,11.20
2023-01-15T00:07:04.504Z,11.20
2023-01-15T00:09:31.511Z,11.20
2023-01-15T00:11:58.392Z,11.20
2023-01-15T00:14:25.275Z,11.20
2023-01-15T00:16:53.165Z,11.10
2023-01-15T00:19:20.357Z,11.10
2023-01-15T00:21:47.299Z,11.10
2023-01-15T00:24:32.817Z,11.10
2023-01-15T00:27:18.087Z,11.10
2023-01-15T00:29:45.046Z,11.10
2023-01-15T00:32:11.890Z,11.20
2023-01-15T00:34:39.022Z,11.10
2023-01-15T00:37:06.133Z,11.10
2023-01-15T00:39:34.527Z,11.20
2023-01-15T00:42:01.538Z,11.10
2023-01-15T00:44:28.513Z,11.20
2023-01-15T00:46:55.384Z,11.20
2023-01-15T00:49:22.380Z,11.20
2023-01-15T00:51:50.044Z,11.10
2023-01-15T00:54:17.551Z,11.10
2023-01-15T00:56:44.614Z,11.10
2023-01-15T00:59:11.802Z,11.00
2023-01-15T01:01:39.124Z,11.00
2023-01-15T01:04:06.302Z,10.90
2023-01-15T01:06:33.185Z,10.90
2023-01-15T01:09:00.033Z,10.70
2023-01-15T01:11:27.045Z,10.50
2023-01-15T01:13:56.944Z,10.40
2023-01-15T01:16:26.120Z,10.20
2023-01-15T01:18:54.247Z,10.10
2023-01-15T01:21:21.199Z,10.00
2023-01-15T01:23:48.202Z,9.90
2023-01-15T01:26:15.193Z,9.80
2023-01-15T01:28:42.893Z,9.70
2023-01-15T01:31:10.139Z,9.60
2023-01-15T01:33:37.141Z,9.50
2023-01-15T01:36:04.305Z,9.50
2023-01-15T01:38:31.459Z,9.40
2023-01-15T01:40:58.386Z,9.30
2023-01-15T01:43:28.789Z,9.30
2023-01-15T01:45:56.315Z,9.10
2023-01-15T01:48:33.793Z,9.00
2023-01-15T01:51:02.588Z,8.90
2023-01-15T01:53:31.914Z,8.80
2023-01-15T01:56:00.859Z,8.70
2023-01-15T01:58:31.082Z,8.60
2023-01-15T02:00:59.273Z,8.50
2023-01-15T02:03:31.405Z,8.30
2023-01-15T02:06:01.310Z,8.20
2023-01-15T02:08:28.559Z,8.10
2023-01-15T02:10:56.694Z,7.90
2023-01-15T02:13:39.139Z,7.90
2023-01-15T02:16:16.891Z,7.80
2023-01-15T02:18:54.340Z,7.70
2023-01-15T02:21:30.298Z,7.60
2023-01-15T02:24:13.047Z,7.50
2023-01-15T02:26:51.914Z,7.40
2023-01-15T02:29:29.718Z,7.30
2023-01-15T02:31:57.259Z,7.30
2023-01-15T02:34:32.524Z,7.30
2023-01-15T02:37:06.396Z,7.20
2023-01-15T02:39:38.097Z,7.20
2023-01-15T02:42:08.498Z,7.10
2023-01-15T02:44:39.787Z,7.10
2023-01-15T02:47:08.514Z,7.10
2023-01-15T02:49:36.794Z,7.10
2023-01-15T02:52:06.957Z,7.10
2023-01-15T02:54:56.589Z,7.00
2023-01-15T02:57:26.633Z,7.00
2023-01-15T02:59:56.959Z,6.90
2023-01-15T03:02:31.406Z,6.90
2023-01-15T03:05:08.961Z,6.90
2023-01-15T03:07:50.152Z,6.90
2023-01-15T03:10:17.602Z,6.90
2023-01-15T03:13:02.995Z,6.80
2023-01-15T03:16:03.997Z,6.80
2023-01-15T03:18:44.483Z,6.80
2023-01-15T03:21:15.502Z,6.80
2023-01-15T03:23:47.364Z,6.80
2023-01-15T03:26:14.266Z,6.80
2023-01-15T03:28:43.181Z,6.90
2023-01-15T03:31:10.219Z,6.90
2023-01-15T03:33:37.346Z,6.80
2023-01-15T03:36:04.506Z,6.90
2023-01-15T03:38:35.488Z,6.80
2023-01-15T03:41:11.590Z,6.80
2023-01-15T03:43:44.537Z,6.80
2023-01-15T03:46:34.135Z,6.80
2023-01-15T03:49:07.284Z,6.90
2023-01-15T03:51:48.622Z,6.90
2023-01-15T03:54:22.070Z,6.90
2023-01-15T03:57:03.712Z,6.90
2023-01-15T03:59:37.755Z,6.90
2023-01-15T04:02:08.233Z,7.00
2023-01-15T04:04:35.777Z,6.90
2023-01-15T04:07:03.719Z,6.90
2023-01-15T04:09:31.522Z,7.00
2023-01-15T04:12:01.754Z,7.00
2023-01-15T04:14:30.795Z,7.00
2023-01-15T04:16:57.663Z,7.00
2023-01-15T04:19:24.611Z,7.00
2023-01-15T04:21:51.477Z,7.10
2023-01-15T04:24:18.360Z,7.00
2023-01-15T04:26:45.175Z,7.10
2023-01-15T04:29:12.091Z,7.10
2023-01-15T04:31:38.991Z,7.00
2023-01-15T04:34:05.873Z,7.00
2023-01-15T04:36:35.476Z,7.10
2023-01-15T04:39:03.759Z,7.10
2023-01-15T04:41:49.621Z,7.10
2023-01-15T04:44:16.517Z,7.10
2023-01-15T04:46:45.526Z,7.10
2023-01-15T04:49:18.188Z,7.10
2023-01-15T04:51:45.819Z,7.10
2023-01-15T04:54:15.640Z,7.10
2023-01-15T04:56:45.538Z,7.10
2023-01-15T04:59:13.086Z,7.10
2023-01-15T05:01:42.825Z,7.10
2023-01-15T05:04:13.240Z,7.10
2023-01-15T05:06:40.099Z,7.00
2023-01-15T05:09:07.066Z,7.00
2023-01-15T05:11:38.912Z,7.00
2023-01-15T05:14:06.480Z,7.00
2023-01-15T05:16:35.062Z,7.10
2023-01-15T05:19:03.716Z,7.10
2023-01-15T05:21:32.941Z,7.00
2023-01-15T05:24:01.715Z,7.00
2023-01-15T05:26:30.560Z,7.10
2023-01-15T05:28:58.860Z,7.10
2023-01-15T05:31:26.840Z,7.10
2023-01-15T05:33:57.263Z,7.10
2023-01-15T05:36:29.931Z,7.10
2023-01-15T05:39:02.115Z,7.10
2023-01-15T05:41:48.960Z,7.10
2023-01-15T05:44:27.838Z,7.00
2023-01-15T05:47:02.837Z,7.00
2023-01-15T05:49:31.345Z,7.00
2023-01-15T05:52:00.408Z,7.00
2023-01-15T05:54:35.650Z,7.00
2023-01-15T05:57:03.403Z,7.00
2023-01-15T05:59:31.835Z,7.00
2023-01-15T06:01:59.133Z,7.20
2023-01-15T06:04:26.526Z,7.10
2023-01-15T06:06:54.835Z,7.10
2023-01-15T06:09:23.147Z,7.10
2023-01-15T06:11:50.864Z,7.10
2023-01-15T06:14:17.766Z,7.10
2023-01-15T06:16:44.698Z,7.10
2023-01-15T06:19:12.921Z,7.10
2023-01-15T06:21:40.020Z,7.10
2023-01-15T06:24:07.620Z,7.10
2023-01-15T06:26:34.679Z,7.10
2023-01-15T06:29:01.577Z,7.10
2023-01-15T06:31:28.565Z,7.10
2023-01-15T06:33:55.696Z,7.00
2023-01-15T06:36:24.521Z,7.00
2023-01-15T06:38:51.472Z,7.10
2023-01-15T06:41:44.243Z,7.00
2023-01-15T06:44:32.539Z,7.00
2023-01-15T06:47:21.961Z,7.00
2023-01-15T06:49:51.255Z,7.00
2023-01-15T06:52:18.150Z,7.00
2023-01-15T06:54:45.031Z,7.00
2023-01-15T06:57:11.911Z,7.00
2023-01-15T06:59:38.911Z,7.00
2023-01-15T07:02:05.818Z,7.00
2023-01-15T07:04:32.861Z,6.90
2023-01-15T07:06:59.683Z,6.90
2023-01-15T07:09:26.642Z,6.80
2023-01-15T07:11:53.578Z,6.80
2023-01-15T07:14:23.328Z,6.80
2023-01-15T07:16:51.321Z,6.80
2023-01-15T07:19:18.866Z,6.80
2023-01-15T07:21:46.391Z,6.80
2023-01-15T07:24:14.445Z,6.90
2023-01-15T07:26:42.233Z,6.90
2023-01-15T07:29:09.480Z,6.90
2023-01-15T07:31:36.599Z,6.90
2023-01-15T07:34:04.521Z,7.10
2023-01-15T07:36:31.461Z,7.00
2023-01-15T07:38:58.677Z,7.00
2023-01-15T07:41:43.946Z,7.10
2023-01-15T07:44:30.262Z,7.10
2023-01-15T07:47:16.186Z,7.10
2023-01-15T07:49:46.065Z,7.20
2023-01-15T07:52:22.930Z,7.20
2023-01-15T07:54:53.619Z,7.40
2023-01-15T07:57:29.048Z,7.30
2023-01-15T07:59:56.209Z,7.30
2023-01-15T08:02:23.327Z,7.40
2023-01-15T08:04:53.026Z,7.40
2023-01-15T08:07:20.669Z,7.50
2023-01-15T08:09:47.955Z,7.60
2023-01-15T08:12:33.429Z,7.50
2023-01-15T08:15:16.363Z,7.50
2023-01-15T08:17:48.149Z,7.50
2023-01-15T08:20:21.073Z,7.50
2023-01-15T08:22:49.190Z,7.50
2023-01-15T08:25:19.460Z,7.50
2023-01-15T08:27:47.371Z,7.50
2023-01-15T08:30:20.306Z,7.50
2023-01-15T08:32:47.240Z,7.40
2023-01-15T08:35:14.143Z,7.40
2023-01-15T08:37:41.947Z,7.50
2023-01-15T08:40:11.286Z,7.50
2023-01-15T08:42:38.647Z,7.50
2023-01-15T08:45:06.157Z,7.50
2023-01-15T08:47:33.362Z,7.50
2023-01-15T08:50:00.303Z,7.50
2023-01-15T08:52:30.715Z,7.50
2023-01-15T08:57:43.782Z,7.60
2023-01-15T09:00:19.038Z,7.60
2023-01-15T09:02:50.071Z,7.60
2023-01-15T09:05:23.441Z,7.60
2023-01-15T09:07:51.533Z,7.70
2023-01-15T09:10:24.243Z,7.70
2023-01-15T09:12:51.647Z,7.70
2023-01-15T09:15:18.989Z,7.70
2023-01-15T09:17:45.904Z,7.80
2023-01-15T09:20:14.421Z,7.80
2023-01-15T09:31:17.439Z,7.90
2023-01-15T09:33:44.476Z,7.90
2023-01-15T09:36:25.706Z,7.90
2023-01-15T09:39:06.197Z,7.90
2023-01-15T09:42:08.217Z,8.00
2023-01-15T09:44:53.201Z,8.10
2023-01-15T09:47:25.926Z,8.00
2023-01-15T09:49:56.000Z,8.00
2023-01-15T09:52:49.151Z,8.00
2023-01-15T09:55:21.041Z,8.10
2023-01-15T09:57:54.731Z,8.10
2023-01-15T10:00:28.006Z,8.10
2023-01-15T10:03:06.846Z,8.30
2023-01-15T10:05:44.254Z,8.20
2023-01-15T10:08:29.231Z,8.30
2023-01-15T10:11:05.447Z,8.30
2023-01-15T10:13:49.386Z,8.40
2023-01-15T10:16:29.265Z,8.50
2023-01-15T10:19:02.578Z,8.50
2023-01-15T10:22:03.414Z,8.50
2023-01-15T10:24:38.549Z,8.60
2023-01-15T10:27:17.964Z,8.50
2023-01-15T10:29:59.859Z,8.50
2023-01-15T10:33:02.865Z,8.40
2023-01-15T10:35:33.297Z,8.30
2023-01-15T10:38:21.350Z,8.20
2023-01-15T10:40:48.322Z,8.20
2023-01-15T10:43:23.630Z,8.20
2023-01-15T10:46:18.678Z,8.10
2023-01-15T10:48:57.602Z,8.10
2023-01-15T10:51:30.528Z,8.00
2023-01-15T10:54:14.693Z,7.90
2023-01-15T10:56:47.087Z,7.90
2023-01-15T10:59:47.967Z,7.90
2023-01-15T11:02:28.303Z,8.00
2023-01-15T11:04:55.499Z,8.10
2023-01-15T11:07:52.979Z,8.20
2023-01-15T11:10:26.805Z,8.30
2023-01-15T11:13:37.604Z,8.40
2023-01-15T11:16:23.351Z,8.50
2023-01-15T11:19:09.374Z,8.60
2023-01-15T11:21:42.411Z,8.60
2023-01-15T11:24:16.415Z,8.70
2023-01-15T11:26:48.910Z,8.80
2023-01-15T11:29:25.395Z,8.60
2023-01-15T11:31:52.379Z,8.60
2023-01-15T11:34:22.016Z,8.60
2023-01-15T11:36:49.124Z,8.40
2023-01-15T11:39:28.064Z,8.40
2023-01-15T11:42:25.260Z,8.40
2023-01-15T11:45:12.791Z,8.30
2023-01-15T11:47:58.177Z,8.20
2023-01-15T11:50:43.645Z,8.10
2023-01-15T11:53:19.932Z,8.10
2023-01-15T11:55:59.878Z,8.10
2023-01-15T11:58:29.709Z,8.00
2023-01-15T12:00:58.405Z,8.00
2023-01-15T12:03:29.372Z,8.10
2023-01-15T12:06:05.169Z,8.10
2023-01-15T12:08:43.041Z,8.00
2023-01-15T12:11:40.088Z,8.00
2023-01-15T12:14:16.247Z,8.00
2023-01-15T12:16:54.044Z,7.90
2023-01-15T12:19:54.848Z,7.90
2023-01-15T12:22:36.725Z,8.00
2023-01-15T12:25:11.314Z,8.10
2023-01-15T12:27:58.704Z,8.10
2023-01-15T12:30:45.896Z,8.20
2023-01-15T12:33:28.468Z,8.10
2023-01-15T12:36:02.519Z,8.20
2023-01-15T12:38:36.686Z,8.40
2023-01-15T12:41:17.284Z,8.30
2023-01-15T12:44:06.291Z,8.30
2023-01-15T12:46:36.684Z,8.50
2023-01-15T12:49:46.756Z,8.60
2023-01-15T12:52:24.364Z,8.70
2023-01-15T12:55:05.677Z,8.70
2023-01-15T12:57:40.159Z,8.80
2023-01-15T13:00:20.737Z,8.80
2023-01-15T13:03:06.551Z,8.70
2023-01-15T13:05:50.595Z,8.70
2023-01-15T13:08:27.535Z,8.70
2023-01-15T13:10:54.516Z,8.80
2023-01-15T13:13:33.511Z,8.90
2023-01-15T13:16:10.077Z,9.00
2023-01-15T13:18:47.388Z,9.00
2023-01-15T13:21:16.928Z,9.00
2023-01-15T13:24:23.975Z,9.10
2023-01-15T13:27:20.186Z,9.10
2023-01-15T13:30:39.768Z,9.20
2023-01-15T13:33:26.247Z,9.10
2023-01-15T13:36:08.324Z,9.00
2023-01-15T13:38:41.805Z,9.00
2023-01-15T13:41:09.714Z,8.90
2023-01-15T13:43:40.956Z,9.10
2023-01-15T13:46:12.006Z,9.10
2023-01-15T13:48:48.693Z,9.10
2023-01-15T13:51:32.803Z,9.10
2023-01-15T13:54:01.203Z,9.10
2023-01-15T13:56:33.507Z,9.10
2023-01-15T13:59:05.827Z,9.10
2023-01-15T14:01:39.669Z,9.10
2023-01-15T14:04:12.543Z,9.10
2023-01-15T14:06:48.086Z,9.10
2023-01-15T14:09:35.225Z,9.10
2023-01-15T14:12:08.005Z,9.10
2023-01-15T14:14:53.537Z,9.10
2023-01-15T14:17:47.948Z,9.10
2023-01-15T14:20:36.764Z,9.10
2023-01-15T14:23:39.408Z,9.10
2023-01-15T14:26:11.484Z,9.10
2023-01-15T14:28:53.954Z,9.00
2023-01-15T14:31:31.329Z,9.00
2023-01-15T14:34:24.029Z,9.00
2023-01-15T14:36:53.228Z,9.00
2023-01-15T14:39:42.198Z,8.90
2023-01-15T14:42:42.642Z,8.90
2023-01-15T14:45:32.194Z,8.80
2023-01-15T14:48:16.295Z,8.80
2023-01-15T14:50:44.084Z,8.70
2023-01-15T14:53:14.000Z,8.80
2023-01-15T14:55:58.124Z,8.90
2023-01-15T14:58:31.200Z,8.80
2023-01-15T15:01:03.352Z,8.80
2023-01-15T15:03:36.949Z,8.80
2023-01-15T15:06:06.665Z,8.80
2023-01-15T15:08:35.403Z,8.80
2023-01-15T15:11:24.720Z,8.80
2023-01-15T15:13:56.284Z,8.80
2023-01-15T15:16:28.467Z,8.70
2023-01-15T15:19:06.680Z,8.60
2023-01-15T15:21:39.884Z,8.60
2023-01-15T15:24:29.993Z,8.70
2023-01-15T15:26:57.041Z,8.70
2023-01-15T15:29:24.025Z,8.70
2023-01-15T15:31:56.332Z,8.60
2023-01-15T15:34:29.801Z,8.70
2023-01-15T15:37:01.376Z,8.70
2023-01-15T15:40:19.749Z,8.60
2023-01-15T15:43:24.421Z,8.60
2023-01-15T15:46:14.730Z,8.60
2023-01-15T15:48:54.982Z,8.60
2023-01-15T15:51:48.759Z,8.60
2023-01-15T15:54:34.688Z,8.70
2023-01-15T15:57:13.873Z,8.60
2023-01-15T15:59:53.558Z,8.60
2023-01-15T16:02:43.054Z,8.60
2023-01-15T16:05:29.106Z,8.60
2023-01-15T16:08:18.969Z,8.60
2023-01-15T16:11:06.986Z,8.60
2023-01-15T16:13:49.662Z,8.60
2023-01-15T16:16:18.549Z,8.50
2023-01-15T16:19:14.116Z,8.50
2023-01-15T16:21:42.090Z,8.50
2023-01-15T16:24:22.627Z,8.50
2023-01-15T16:27:01.191Z,8.50
2023-01-15T16:29:33.356Z,8.60
2023-01-15T16:32:09.988Z,8.50
2023-01-15T16:34:37.163Z,8.50
2023-01-15T16:37:04.181Z,8.50
2023-01-15T16:39:43.783Z,8.40
2023-01-15T16:42:27.485Z,8.30
2023-01-15T16:44:57.565Z,8.20
2023-01-15T16:47:27.271Z,8.30
2023-01-15T16:50:14.635Z,8.20
2023-01-15T16:52:48.766Z,8.30
2023-01-15T16:55:37.507Z,8.20
2023-01-15T17:01:34.214Z,8.30
2023-01-15T17:04:02.333Z,8.40
2023-01-15T17:06:30.034Z,8.40
2023-01-15T17:08:58.955Z,8.40
2023-01-15T17:11:29.959Z,8.50
2023-01-15T17:14:27.355Z,8.40
2023-01-15T17:17:22.072Z,8.50
2023-01-15T17:19:50.744Z,8.40
2023-01-15T17:22:23.955Z,8.40
2023-01-15T17:30:34.701Z,8.40
2023-01-15T17:33:04.156Z,8.40
2023-01-15T17:35:33.262Z,8.40
2023-01-15T17:38:00.474Z,8.50
2023-01-15T17:40:27.731Z,8.50
2023-01-15T17:42:54.749Z,8.50
2023-01-15T17:45:23.260Z,8.50
2023-01-15T17:47:50.367Z,8.50
2023-01-15T17:50:18.195Z,8.60
2023-01-15T17:52:45.647Z,8.60
2023-01-15T17:55:36.448Z,8.60
2023-01-15T17:58:22.122Z,8.60
2023-01-15T18:01:08.483Z,8.60
2023-01-15T18:04:03.753Z,8.50
2023-01-15T18:06:31.139Z,8.50
2023-01-15T18:09:00.584Z,8.60
2023-01-15T18:11:27.544Z,8.50
2023-01-15T18:13:55.959Z,8.50
2023-01-15T18:16:26.410Z,8.50
2023-01-15T18:18:54.021Z,8.50
2023-01-15T18:21:22.015Z,8.50
2023-01-15T18:23:48.968Z,8.60
2023-01-15T18:26:15.916Z,8.50
2023-01-15T18:28:42.929Z,8.60
2023-01-15T18:31:11.436Z,8.60
2023-01-15T18:33:38.479Z,8.50
2023-01-15T18:36:13.669Z,8.60
2023-01-15T18:38:47.412Z,8.50
2023-01-15T18:41:36.727Z,8.50
2023-01-15T18:44:31.219Z,8.50
2023-01-15T18:47:00.981Z,8.50
2023-01-15T18:49:28.963Z,8.50
2023-01-15T18:52:14.523Z,8.60
2023-01-15T18:54:41.493Z,8.50
2023-01-15T18:57:08.434Z,8.50
2023-01-15T18:59:35.379Z,8.50
2023-01-15T19:02:02.430Z,8.50
2023-01-15T19:04:29.348Z,8.50
2023-01-15T19:06:56.529Z,8.70
2023-01-15T19:09:26.773Z,8.50
2023-01-15T19:11:53.774Z,8.60
2023-01-15T19:14:40.343Z,8.60
2023-01-15T19:17:30.220Z,8.60
2023-01-15T19:19:57.131Z,8.50
2023-01-15T19:22:42.505Z,8.50
2023-01-15T19:25:09.862Z,8.50
2023-01-15T19:27:36.877Z,8.50
2023-01-15T19:30:06.797Z,8.50
2023-01-15T19:32:34.573Z,8.50
2023-01-15T19:35:01.674Z,8.40
2023-01-15T19:37:28.726Z,8.40
2023-01-15T19:39:55.590Z,8.40
2023-01-15T19:42:41.078Z,8.40
2023-01-15T19:45:29.274Z,8.40
2023-01-15T19:48:14.843Z,8.30
2023-01-15T19:50:43.336Z,8.40
2023-01-15T19:53:13.926Z,8.30
2023-01-15T19:55:43.866Z,8.30
2023-01-15T19:58:13.571Z,8.10
2023-01-15T20:00:42.191Z,8.30
2023-01-15T20:03:11.596Z,8.30
2023-01-15T20:05:40.186Z,8.20
2023-01-15T20:08:09.238Z,8.20
2023-01-15T20:10:38.426Z,8.20
2023-01-15T20:13:34.399Z,8.20
2023-01-15T20:16:17.558Z,8.20
2023-01-15T20:18:44.908Z,8.10
2023-01-15T20:21:14.557Z,8.00
2023-01-15T20:23:42.379Z,8.10
2023-01-15T20:26:12.302Z,8.00
2023-01-15T20:28:42.270Z,8.00
2023-01-15T20:31:19.143Z,8.00
2023-01-15T20:33:46.855Z,8.00
2023-01-15T20:36:14.378Z,7.90
2023-01-15T20:38:41.258Z,7.90
2023-01-15T20:41:28.107Z,7.90
2023-01-15T20:44:13.676Z,7.90
2023-01-15T20:46:40.768Z,7.80
2023-01-15T20:49:27.462Z,7.80
2023-01-15T20:51:55.259Z,7.90
2023-01-15T20:54:23.770Z,7.70
2023-01-15T20:56:50.739Z,7.70
2023-01-15T20:59:17.737Z,7.70
2023-01-15T21:01:44.809Z,7.70
2023-01-15T21:04:13.588Z,7.70
2023-01-15T21:06:40.565Z,7.80
2023-01-15T21:09:07.692Z,7.80
2023-01-15T21:11:34.637Z,7.70
2023-01-15T21:14:01.575Z,7.70
2023-01-15T21:16:28.472Z,7.70
2023-01-15T21:18:55.400Z,7.80
2023-01-15T21:21:22.681Z,7.80
2023-01-15T21:23:50.351Z,7.80
2023-01-15T21:26:17.444Z,7.70
2023-01-15T21:28:44.753Z,7.70
2023-01-15T21:31:14.073Z,7.60
2023-01-15T21:33:41.033Z,7.60
2023-01-15T21:36:15.064Z,7.60
2023-01-15T21:38:42.010Z,7.60
2023-01-15T21:41:12.952Z,7.50
2023-01-15T21:43:58.872Z,7.40
2023-01-15T21:46:28.598Z,7.40
2023-01-15T21:48:56.653Z,7.30
2023-01-15T21:51:27.294Z,7.20
2023-01-15T21:53:54.776Z,7.20
2023-01-15T21:56:21.717Z,7.10
2023-01-15T21:58:48.589Z,7.30
2023-01-15T22:01:18.233Z,7.10
2023-01-15T22:03:46.011Z,7.00
2023-01-15T22:06:13.110Z,7.00
2023-01-15T22:08:40.414Z,6.90
2023-01-15T22:11:09.976Z,6.90
2023-01-15T22:13:38.309Z,6.80
2023-01-15T22:16:05.524Z,6.90
2023-01-15T22:18:33.511Z,6.80
2023-01-15T22:21:07.623Z,6.70
2023-01-15T22:23:35.087Z,6.70
2023-01-15T22:26:02.096Z,6.70
2023-01-15T22:28:28.987Z,6.70
2023-01-15T22:30:55.937Z,6.70
2023-01-15T22:33:22.918Z,6.60
2023-01-15T22:35:57.620Z,6.70
2023-01-15T22:38:24.590Z,6.70
2023-01-15T22:40:51.581Z,6.70
2023-01-15T22:43:18.650Z,6.70
2023-01-15T22:45:45.492Z,6.80
2023-01-15T22:48:12.529Z,6.80
2023-01-15T22:50:39.435Z,6.90
2023-01-15T22:53:06.304Z,6.90
2023-01-15T22:55:33.513Z,6.90
2023-01-15T22:58:00.467Z,7.00
2023-01-15T23:00:27.463Z,6.80
2023-01-15T23:02:54.404Z,6.80
2023-01-15T23:05:23.143Z,6.80
2023-01-15T23:07:50.338Z,6.70
2023-01-15T23:10:17.346Z,6.70
2023-01-15T23:12:44.232Z,6.80
2023-01-15T23:15:13.323Z,6.80
2023-01-15T23:17:40.779Z,6.80
2023-01-15T23:20:09.040Z,6.80
2023-01-15T23:22:35.992Z,6.80
2023-01-15T23:25:03.128Z,6.90
2023-01-15T23:27:30.023Z,6.90
2023-01-15T23:29:56.922Z,6.90
2023-01-15T23:32:23.804Z,6.90
2023-01-15T23:34:50.918Z,6.90
2023-01-15T23:37:17.762Z,6.90
2023-01-15T23:39:44.579Z,6.90
2023-01-15T23:42:29.889Z,6.80
2023-01-15T23:45:15.235Z,6.80
2023-01-15T23:47:42.126Z,6.70
2023-01-15T23:50:09.595Z,6.70
2023-01-15T23:52:36.442Z,6.60
2023-01-15T23:55:03.355Z,6.50
2023-01-15T23:57:30.237Z,6.50
2023-01-15T23:59:57.157Z,6.40
